Latest Coastal Weather Observations for Larapuna (Eddystone Point)

IDT60701

Issued at 1:02 pm EDT Tuesday 2 March 2021 (issued every 10 minutes, with the page automatically refreshed every 10 minutes)

About coastal observations | Map of coastal stations | Coastal observations for TAS | Marine services | Other Formats
Station Details ID: 092045 Name: LARAPUNA (EDDYSTONE POINT) Lat: -40.99 Lon: 148.35 Height: 19.7 m
Data from the previous 72 hours. | See also: Recent months at Larapuna (Eddystone Point)
Date/Time
EDT
Wind Sea
Height
m
Swell Vis
km
Cloud Weather Temp
°C
Press
MSL
hPa
Rain since
9am
mm
Dir  Spd
kts
Gust
kts
Height
m
Period
s
Dir
02/01:00pm S 22 27 - - - - - - - 17.3 1012.0 0.0
02/12:30pm S 20 24 - - - - - - - 17.3 1011.9 0.0
02/12:00pm S 20 25 - - - - - - - 17.6 1012.0 0.0
02/11:30am S 21 26 - - - - - - - 19.0 1011.8 0.0
02/11:00am S 20 25 - - - - - - - 18.4 1011.7 0.0
02/10:30am S 19 24 - - - - - - - 17.9 1011.8 0.0
02/10:00am SW 11 15 - - - - - - - 17.1 1011.8 0.0
02/09:30am SSW 11 13 - - - - - - - 16.2 1011.7 0.0
02/09:00am SW 14 19 - - - - - - - 15.0 1011.3 0.0
02/08:30am SW 13 16 - - - - - - - 13.9 1010.9 0.0
02/08:00am W 7 9 - - - - - - - 11.2 1010.5 0.0
02/07:30am WNW 9 12 - - - - - - - 9.0 1010.2 0.0
02/07:00am WNW 9 12 - - - - - - - 8.8 1009.6 0.0
02/06:30am WNW 9 11 - - - - - - - 8.6 1009.1 0.0
02/06:00am WNW 8 11 - - - - - - - 9.1 1008.7 0.0
02/05:30am W 11 14 - - - - - - - 9.5 1008.3 0.0
02/05:00am W 13 17 - - - - - - - 9.5 1007.6 0.0
02/04:30am WNW 13 16 - - - - - - - 9.9 1007.1 0.0
02/04:00am W 11 16 - - - - - - - 10.3 1006.6 0.0
02/03:30am WSW 18 24 - - - - - - - 11.2 1006.0 0.0
02/03:00am W 16 22 - - - - - - - 10.2 1005.9 0.0
02/02:30am W 17 22 - - - - - - - 10.6 1005.8 0.0
02/02:00am WNW 11 15 - - - - - - - 10.3 1005.6 0.0
02/01:30am WNW 14 17 - - - - - - - 10.8 1005.4 0.0
02/01:00am WNW 14 22 - - - - - - - 11.2 1005.2 0.0
02/12:30am W 15 21 - - - - - - - 11.2 1004.8 0.0
02/12:00am WNW 16 20 - - - - - - - 11.6 1004.6 0.0
 
Date/Time
EDT
Wind Sea
Height
m
Swell Vis
km
Cloud Weather Temp
°C
Press
MSL
hPa
Rain since
9am
mm
Dir  Spd
kts
Gust
kts
Height
m
Period
s
Dir
01/11:30pm W 16 22 - - - - - - - 12.0 1004.6 0.0
01/11:00pm W 14 21 - - - - - - - 12.2 1004.8 0.0
01/10:30pm W 15 28 - - - - - - - 12.6 1004.8 0.0
01/10:21pm W 17 28 - - - - - - - 12.8 1004.4 0.0
01/10:00pm W 17 24 - - - - - - - 13.0 1003.9 0.0
01/09:30pm W 18 26 - - - - - - - 13.5 1003.7 0.0
01/09:00pm W 17 25 - - - - - - - 13.5 1003.6 0.0
01/08:30pm WNW 18 26 - - - - - - - 14.1 1002.5 0.0
01/08:00pm W 22 33 - - - - - - - 14.7 1002.1 0.0
01/07:30pm WNW 27 37 - - - - - - - 15.4 1001.0 0.0
01/07:00pm WNW 29 44 - - - - - - - 16.5 1000.8 0.0
01/06:30pm WNW 26 41 - - - - - - - 17.9 1000.4 0.0
01/06:00pm WNW 29 39 - - - - - - - 18.7 1000.1 0.0
01/05:30pm WNW 26 40 - - - - - - - 19.4 1000.1 0.0
01/05:00pm WNW 26 36 - - - - - - - 20.0 1000.7 0.0
01/04:30pm WNW 31 42 - - - - - - - 19.5 1001.1 0.0
01/04:00pm NW 27 39 - - - - - - - 20.5 1001.4 0.0
01/03:30pm WNW 22 32 - - - - - - - 21.5 1002.2 0.0
01/03:00pm NW 20 31 - - - - - - - 21.8 1002.7 0.0
01/02:52pm WNW 21 31 - - - - - - - 21.8 1002.9 0.0
01/02:30pm NW 17 25 - - - - - - - 21.6 1003.3 0.0
01/02:00pm WNW 18 24 - - - - - - - 20.3 1003.9 0.0
01/01:30pm NW 20 26 - - - - - - - 21.2 1004.0 0.0
01/01:00pm WNW 16 22 - - - - - - - 21.1 1004.7 0.0
01/12:30pm NW 15 22 - - - - - - - 21.2 1004.8 0.0
01/12:00pm NW 16 20 - - - - - - - 21.8 1005.5 0.0
01/11:30am WNW 15 20 - - - - - - - 20.7 1006.0 0.0
01/11:00am NW 12 17 - - - - - - - 20.0 1006.4 0.0
01/10:30am NW 10 14 - - - - - - - 20.2 1006.6 0.0
01/10:00am N 6 10 - - - - - - - 19.1 1007.0 0.0
01/09:30am NW 8 9 - - - - - - - 18.9 1007.3 0.0
01/09:00am NW 5 7 - - - - - - - 17.4 1007.4 0.2
01/08:30am W 5 8 - - - - - - - 16.4 1007.5 0.2
01/08:00am W 6 8 - - - - - - - 15.5 1007.6 0.2
01/07:30am W 7 8 - - - - - - - 14.6 1007.6 0.2
01/07:00am W 7 8 - - - - - - - 14.6 1007.6 0.2
01/06:30am W 8 9 - - - - - - - 14.6 1007.5 0.2
01/06:00am W 7 8 - - - - - - - 14.7 1007.7 0.2
01/05:30am WNW 7 8 - - - - - - - 14.6 1007.8 0.2
01/05:00am WNW 6 7 - - - - - - - 14.6 1007.9 0.2
01/04:30am W 8 9 - - - - - - - 14.8 1008.1 0.2
01/04:00am WNW 9 10 - - - - - - - 14.5 1008.5 0.2
01/03:30am WNW 9 10 - - - - - - - 14.6 1008.7 0.2
01/03:00am WNW 8 9 - - - - - - - 14.3 1008.9 0.2
01/02:30am WNW 7 8 - - - - - - - 14.5 1008.9 0.2
01/02:00am WNW 7 8 - - - - - - - 14.8 1009.3 0.2
01/01:30am WNW 8 9 - - - - - - - 14.5 1009.5 0.2
01/01:00am WNW 8 9 - - - - - - - 14.3 1009.8 0.2
01/12:30am NW 7 8 - - - - - - - 14.1 1010.2 0.2
01/12:00am NNW 6 7 - - - - - - - 14.7 1010.4 0.2
 
Date/Time
EDT
Wind Sea
Height
m
Swell Vis
km
Cloud Weather Temp
°C
Press
MSL
hPa
Rain since
9am
mm
Dir  Spd
kts
Gust
kts
Height
m
Period
s
Dir
28/11:30pm NNW 6 7 - - - - - - - 15.0 1010.7 0.2
28/11:00pm NNW 6 7 - - - - - - - 14.7 1010.8 0.2
28/10:30pm NW 7 8 - - - - - - - 14.8 1010.9 0.2
28/10:00pm NW 8 8 - - - - - - - 15.1 1011.2 0.2
28/09:30pm NW 7 8 - - - - - - - 15.5 1011.1 0.2
28/09:00pm NW 7 8 - - - - - - - 16.0 1011.1 0.2
28/08:30pm NNW 7 9 - - - - - - - 17.3 1011.0 0.2
28/08:00pm NNW 7 9 - - - - - - - 17.5 1010.9 0.2
28/07:30pm NNW 8 10 - - - - - - - 18.0 1010.9 0.2
28/07:00pm NW 8 11 - - - - - - - 19.3 1010.7 0.2
28/06:30pm WNW 10 13 - - - - - - - 19.1 1010.7 0.2
28/06:00pm N 9 11 - - - - - - - 18.7 1010.7 0.2
28/05:30pm N 9 11 - - - - - - - 18.9 1010.8 0.2
28/05:00pm N 10 12 - - - - - - - 19.5 1011.1 0.2
28/04:30pm NNW 9 12 - - - - - - - 19.1 1011.3 0.2
28/04:00pm NNE 8 9 - - - - - - - 19.1 1011.5 0.2
28/03:30pm NE 7 9 - - - - - - - 21.5 1011.5 0.2
28/03:00pm NE 8 9 - - - - - - - 21.5 1011.7 0.2
28/02:30pm NE 8 10 - - - - - - - 21.2 1011.7 0.2
28/02:00pm NNE 7 8 - - - - - - - 18.9 1012.4 0.2
28/01:30pm NE 7 9 - - - - - - - 21.2 1012.7 0.2
28/01:00pm NE 7 9 - - - - - - - 21.1 1012.9 0.2
28/12:30pm E 6 8 - - - - - - - 21.1 1013.0 0.2
28/12:00pm ESE 6 8 - - - - - - - 21.5 1013.4 0.2
28/11:30am ESE 6 7 - - - - - - - 20.7 1013.7 0.2
28/11:00am S 5 6 - - - - - - - 19.2 1013.8 0.2
28/10:30am SSW 6 7 - - - - - - - 19.9 1014.1 0.0
28/10:00am SSW 5 6 - - - - - - - 19.1 1013.9 0.0
28/09:30am SSW 4 5 - - - - - - - 18.2 1013.9 0.0
28/09:00am WSW 4 5 - - - - - - - 17.1 1013.7 0.0
28/08:30am WSW 3 3 - - - - - - - 15.1 1013.5 0.0
28/08:00am WSW 4 5 - - - - - - - 13.7 1013.5 0.0
28/07:30am WSW 6 7 - - - - - - - 13.0 1013.2 0.0
28/07:00am WSW 6 7 - - - - - - - 12.4 1013.1 0.0
28/06:30am SSW 4 5 - - - - - - - 13.7 1012.8 0.0
28/06:00am SW 4 5 - - - - - - - 13.3 1012.7 0.0
28/05:30am SW 5 7 - - - - - - - 13.2 1012.8 0.0
28/05:00am SW 5 6 - - - - - - - 13.6 1013.0 0.0
28/04:30am SW 6 7 - - - - - - - 13.5 1013.2 0.0
28/04:00am WSW 7 8 - - - - - - - 13.8 1013.2 0.0
28/03:30am SW 7 8 - - - - - - - 14.3 1013.0 0.0
28/03:00am SW 9 10 - - - - - - - 15.2 1013.1 0.0
28/02:30am S 9 11 - - - - - - - 15.6 1013.1 0.0
28/02:00am SSW 7 9 - - - - - - - 15.3 1013.5 0.0
28/01:30am SW 6 8 - - - - - - - 15.0 1013.8 0.0
28/01:00am SW 5 6 - - - - - - - 15.4 1014.1 0.0
28/12:30am SSW 7 9 - - - - - - - 15.6 1014.2 0.0
28/12:00am SSW 10 13 - - - - - - - 16.1 1014.2 0.0
 
Date/Time
EDT
Wind Sea
Height
m
Swell Vis
km
Cloud Weather Temp
°C
Press
MSL
hPa
Rain since
9am
mm
Dir  Spd
kts
Gust
kts
Height
m
Period
s
Dir
27/11:30pm SSW 9 11 - - - - - - - 16.7 1014.2 0.0
27/11:00pm S 11 12 - - - - - - - 16.7 1014.1 0.0
27/10:30pm S 9 11 - - - - - - - 16.7 1013.9 0.0
27/10:00pm S 10 12 - - - - - - - 16.7 1014.1 0.0
27/09:30pm S 10 12 - - - - - - - 16.7 1014.2 0.0
27/09:00pm S 10 11 - - - - - - - 16.7 1014.2 0.0
27/08:30pm S 9 11 - - - - - - - 16.7 1014.2 0.0
27/08:00pm S 10 12 - - - - - - - 16.8 1013.9 0.0
27/07:30pm S 10 12 - - - - - - - 16.8 1013.7 0.0
27/07:00pm S 10 12 - - - - - - - 17.0 1013.4 0.0
27/06:30pm SSE 11 14 - - - - - - - 17.1 1013.3 0.0
27/06:00pm SSE 11 13 - - - - - - - 17.3 1013.3 0.0
27/05:30pm SSE 12 15 - - - - - - - 17.4 1013.2 0.0
27/05:00pm SSE 11 14 - - - - - - - 17.5 1013.4 0.0
27/04:30pm SSE 13 16 - - - - - - - 18.1 1013.2 0.0
27/04:00pm SSE 14 17 - - - - - - - 18.6 1013.2 0.0
27/03:30pm SSE 12 15 - - - - - - - 18.6 1013.6 0.0
27/03:00pm SSE 11 13 - - - - - - - 18.2 1014.0 0.0
27/02:30pm SSE 12 14 - - - - - - - 18.7 1014.0 0.0
27/02:00pm SSE 14 16 - - - - - - - 19.0 1013.9 0.0
27/01:30pm SSE 15 17 - - - - - - - 18.4 1014.1 0.0

Other formats

Comma delimited format used in spreadsheet applications
http://www.bom.gov.au/fwo/IDT60701/IDT60701.94983.axf

JavaScript Object Notation format (JSON) in row-major order
http://www.bom.gov.au/fwo/IDT60701/IDT60701.94983.json

Data quality

Most of these data are generated automatically and are frequently updated. Quality checks on data are not normally performed. It is possible for incorrect values to appear. Refer to information at About Latest Weather Observations and please check the disclaimer before using these data.